»·PEaware :: N647WT KSMX-KBFL

N647WT :: KSMX-KBFL

FLIGHT INFORMATION

Flight Status: Arrived
Operator: Privately registered:
United States
More flights under this callsign
Pilot: Chris B. (15698)
Aircraft: ECLIPSE 500
(EA50)
More flights by this aircraft type
Origin: KSMX Santa Maria Pub/Capt Hancock
United States
Destination: KBFL Meadows
United States
More flights between these airports :: More routes between these airports
Route: WYNNR TIPVE
File this flight plan on PilotEdge
Remarks: CAT-05 RATING
Altitude:
(Current/Filed)
7,500ft
Speed:
(Current/Filed)
200kts
Departed: 19-Jun-17 09:20 AM
Arrived: 19-Jun-17 10:26 AM
Distance/Time
Traveled:
76nm/1:05
Distance/Time
To Go:
Arrived

Flight Plot

Page will automatically refresh every two minutes.

Flight plan parsing failed; only flown route is shown


Map Options




Map Legend


Flown Route
Filed Route
Departure Airport
Arrival Airport
Navaid (VOR, NDB)
Fix

Horizontal Profiles

Position Reports

Time Latitude Longitude Heading Altitude Ground
Speed
19-Jun-17 09:07 34.895476 -120.444522 314 264ft 0kts
19-Jun-17 09:08 34.895476 -120.444522 314 264ft 0kts
19-Jun-17 09:09 34.895476 -120.444522 314 264ft 0kts
19-Jun-17 09:10 34.895476 -120.444522 314 264ft 0kts
19-Jun-17 09:11 34.895476 -120.444522 314 264ft 0kts
19-Jun-17 09:12 34.895476 -120.444522 314 264ft 0kts
19-Jun-17 09:13 34.895476 -120.444522 314 264ft 0kts
19-Jun-17 09:14 34.895476 -120.444522 314 264ft 0kts
19-Jun-17 09:15 34.895476 -120.444522 314 264ft 0kts
19-Jun-17 09:16 34.895476 -120.444522 314 264ft 0kts
19-Jun-17 09:17 34.895476 -120.444522 314 264ft 0kts
19-Jun-17 09:18 34.895476 -120.444522 314 264ft 0kts
19-Jun-17 09:19 34.894305 -120.445279 209 264ft 15kts
19-Jun-17 09:20 34.893689 -120.445381 181 264ft 0kts
19-Jun-17 09:21 34.893689 -120.445381 181 264ft 0kts
19-Jun-17 09:22 34.893192 -120.446249 316 264ft 13kts
19-Jun-17 09:23 34.912933 -120.469788 316 1067ft 125kts
19-Jun-17 09:24 34.941884 -120.481222 42 1578ft 129kts
19-Jun-17 09:25 34.969228 -120.442430 50 1737ft 202kts
19-Jun-17 09:26 35.004968 -120.387712 48 3173ft 201kts
19-Jun-17 09:27 35.039481 -120.336348 48 3133ft 208kts
19-Jun-17 09:28 35.075564 -120.279627 60 3259ft 214kts
19-Jun-17 09:29 35.045102 -120.237269 201 3459ft 212kts
19-Jun-17 09:30 35.009078 -120.291574 245 3653ft 208kts
19-Jun-17 09:31 34.960497 -120.313885 194 2817ft 205kts
19-Jun-17 09:32 34.918412 -120.325959 193 2653ft 124kts
19-Jun-17 09:33 34.887819 -120.341936 220 2758ft 122kts
19-Jun-17 09:34 34.862771 -120.368881 220 2958ft 119kts
19-Jun-17 09:35 34.862273 -120.405401 308 1809ft 135kts
19-Jun-17 09:36 34.884259 -120.435567 313 643ft 110kts
19-Jun-17 09:37 34.898680 -120.451250 90 264ft 8kts
19-Jun-17 09:38 34.898680 -120.451222 89 264ft 0kts
19-Jun-17 09:39 34.898680 -120.451222 89 264ft 0kts
19-Jun-17 09:40 34.898680 -120.451222 89 264ft 0kts
19-Jun-17 09:41 34.899123 -120.449814 20 264ft 6kts
19-Jun-17 09:42 34.899191 -120.449798 7 264ft 0kts
19-Jun-17 09:43 34.899191 -120.449798 7 264ft 0kts
19-Jun-17 09:44 34.899191 -120.449798 7 264ft 0kts
19-Jun-17 09:45 34.895473 -120.444509 314 264ft 0kts
19-Jun-17 09:46 34.895473 -120.444509 314 264ft 0kts
19-Jun-17 09:47 34.895473 -120.444509 314 264ft 0kts
19-Jun-17 09:48 34.895473 -120.444509 314 264ft 0kts
19-Jun-17 09:49 34.895473 -120.444509 314 264ft 0kts
19-Jun-17 09:50 34.895473 -120.444509 314 264ft 0kts
19-Jun-17 09:51 34.895473 -120.444509 314 264ft 0kts
19-Jun-17 09:52 34.895473 -120.444509 314 264ft 0kts
19-Jun-17 09:53 34.895473 -120.444509 314 264ft 0kts
19-Jun-17 09:54 34.895473 -120.444509 314 264ft 0kts
19-Jun-17 09:55 34.894592 -120.444949 218 264ft 10kts
19-Jun-17 09:56 34.893714 -120.445386 181 264ft 0kts
19-Jun-17 09:57 34.893714 -120.445386 181 264ft 0kts
19-Jun-17 09:58 34.893714 -120.445386 181 264ft 0kts
19-Jun-17 09:59 34.894630 -120.447979 315 264ft 65kts
19-Jun-17 10:00 34.916953 -120.472729 324 1234ft 118kts
19-Jun-17 10:01 34.943665 -120.459692 42 1496ft 123kts
19-Jun-17 10:02 34.974513 -120.423908 42 1890ft 174kts
19-Jun-17 10:03 35.006408 -120.375384 60 2546ft 190kts
19-Jun-17 10:04 35.036156 -120.322561 49 3242ft 190kts
19-Jun-17 10:05 35.071175 -120.274470 44 3919ft 191kts
19-Jun-17 10:06 35.108032 -120.229256 42 4380ft 217kts
19-Jun-17 10:07 35.133214 -120.162662 68 4226ft 219kts
19-Jun-17 10:08 35.153215 -120.096511 68 4099ft 214kts
19-Jun-17 10:09 35.173730 -120.028253 68 4360ft 210kts
19-Jun-17 10:10 35.193796 -119.961381 70 7428ft 213kts
19-Jun-17 10:11 35.214484 -119.892121 71 7497ft 237kts
19-Jun-17 10:12 35.237066 -119.816113 71 7484ft 238kts
19-Jun-17 10:13 35.259562 -119.740178 72 7532ft 238kts
19-Jun-17 10:13 35.278317 -119.676578 71 7520ft 240kts
19-Jun-17 10:14 35.300992 -119.599624 70 7508ft 241kts
19-Jun-17 10:15 35.320381 -119.533777 70 7500ft 218kts
19-Jun-17 10:16 35.340901 -119.463935 70 7146ft 220kts
19-Jun-17 10:17 35.361263 -119.394212 69 5249ft 220kts
19-Jun-17 10:19 35.383536 -119.316394 69 3685ft 186kts
19-Jun-17 10:19 35.395798 -119.274618 68 3489ft 125kts
19-Jun-17 10:20 35.410633 -119.224441 69 3500ft 162kts
19-Jun-17 10:21 35.425766 -119.172734 69 3250ft 158kts
19-Jun-17 10:23 35.441426 -119.117854 82 2185ft 139kts
19-Jun-17 10:23 35.428864 -119.085059 157 1553ft 132kts
19-Jun-17 10:24 35.403007 -119.067977 144 1307ft 96kts
19-Jun-17 10:25 35.376307 -119.040446 138 1872ft 128kts
19-Jun-17 10:26 35.382540 -119.007790 16 2140ft 86kts
19-Jun-17 10:27 35.409497 -119.026493 315 997ft 114kts
19-Jun-17 10:28 35.428223 -119.049344 313 509ft 34kts
19-Jun-17 10:29 35.429266 -119.049280 45 509ft 2kts
19-Jun-17 10:30 35.430326 -119.047822 315 509ft 0kts
19-Jun-17 10:31 35.430326 -119.047822 315 509ft 0kts

Navigation Log

Ident Type
Flight plan parsing failed, navigation log unavailable